createdAt,value
2023-02-19T00:00:34.141Z,99040.35
2023-02-19T00:03:05.154Z,99039.48
2023-02-19T00:05:38.017Z,99039.38
2023-02-19T00:08:09.085Z,99031.23
2023-02-19T00:10:39.789Z,99025.64
2023-02-19T00:13:10.526Z,99018.70
2023-02-19T00:15:41.351Z,99012.21
2023-02-19T00:18:12.115Z,99004.59
2023-02-19T00:20:43.355Z,99003.27
2023-02-19T00:23:14.031Z,99006.83
2023-02-19T00:25:45.036Z,99003.13
2023-02-19T00:28:15.799Z,99002.08
2023-02-19T00:30:46.559Z,98997.10
2023-02-19T00:33:18.274Z,98991.45
2023-02-19T00:35:49.220Z,98990.60
2023-02-19T00:38:20.162Z,98988.43
2023-02-19T00:40:51.006Z,98991.65
2023-02-19T00:43:21.777Z,98986.98
2023-02-19T00:45:52.561Z,98984.90
2023-02-19T00:48:23.375Z,98981.40
2023-02-19T00:50:54.260Z,98981.71
2023-02-19T00:53:25.206Z,98983.64
2023-02-19T00:55:55.996Z,98979.46
2023-02-19T00:58:26.783Z,98984.86
2023-02-19T01:00:57.582Z,98981.07
2023-02-19T01:03:28.896Z,98983.13
2023-02-19T01:05:59.708Z,98982.23
2023-02-19T01:08:31.407Z,98976.27
2023-02-19T01:11:03.325Z,98974.52
2023-02-19T01:13:34.792Z,98971.58
2023-02-19T01:16:10.572Z,98966.91
2023-02-19T01:18:41.688Z,98968.40
2023-02-19T01:21:16.541Z,98961.97
2023-02-19T01:23:47.330Z,98952.96
2023-02-19T01:26:20.406Z,98944.10
2023-02-19T01:28:51.799Z,98938.59
2023-02-19T01:31:24.611Z,98930.17
2023-02-19T01:33:57.323Z,98926.70
2023-02-19T01:36:30.078Z,98925.87
2023-02-19T01:39:04.097Z,98925.91
2023-02-19T01:41:38.999Z,98924.04
2023-02-19T01:44:24.506Z,98918.51
2023-02-19T01:46:57.738Z,98923.30
2023-02-19T01:49:32.957Z,98920.94
2023-02-19T01:52:07.218Z,98922.40
2023-02-19T01:54:41.874Z,98921.02
2023-02-19T01:57:18.192Z,98927.31
2023-02-19T01:59:52.361Z,98925.98
2023-02-19T02:02:25.172Z,98925.73
2023-02-19T02:04:56.566Z,98922.46
2023-02-19T02:07:45.336Z,98917.71
2023-02-19T02:10:22.415Z,98907.72
2023-02-19T02:13:00.003Z,98908.20
2023-02-19T02:15:37.633Z,98901.10
2023-02-19T02:18:16.936Z,98902.31
2023-02-19T02:21:05.677Z,98900.59
2023-02-19T02:23:51.034Z,98903.02
2023-02-19T02:26:44.894Z,98902.43
2023-02-19T02:29:46.477Z,98898.08
2023-02-19T02:32:23.235Z,98900.88
2023-02-19T02:35:00.068Z,98906.14
2023-02-19T02:37:35.973Z,98908.98
2023-02-19T02:40:08.677Z,98915.70
2023-02-19T02:42:41.943Z,98912.73
2023-02-19T02:45:36.947Z,98913.02
2023-02-19T02:48:28.556Z,98907.02
2023-02-19T02:51:05.392Z,98899.52
2023-02-19T02:54:00.251Z,98899.73
2023-02-19T02:56:32.280Z,98898.60
2023-02-19T02:59:05.324Z,98886.23
2023-02-19T03:02:00.395Z,98883.96
2023-02-19T03:04:59.356Z,98884.33
2023-02-19T03:07:35.301Z,98877.30
2023-02-19T03:10:09.819Z,98863.27
2023-02-19T03:12:59.540Z,98870.20
2023-02-19T03:15:52.858Z,98868.09
2023-02-19T03:18:44.287Z,98868.77
2023-02-19T03:21:18.272Z,98867.67
2023-02-19T03:24:08.666Z,98862.52
2023-02-19T03:26:42.054Z,98862.38
2023-02-19T03:29:24.157Z,98863.91
2023-02-19T03:31:58.340Z,98865.23
2023-02-19T03:34:32.620Z,98863.75
2023-02-19T03:37:10.195Z,98861.33
2023-02-19T03:39:46.361Z,98856.37
2023-02-19T03:42:26.106Z,98850.56
2023-02-19T03:45:10.820Z,98847.15
2023-02-19T03:47:49.933Z,98842.65
2023-02-19T03:50:25.413Z,98830.16
2023-02-19T03:53:05.812Z,98831.89
2023-02-19T03:55:46.193Z,98830.39
2023-02-19T03:58:22.652Z,98824.61
2023-02-19T04:00:58.770Z,98827.67
2023-02-19T04:03:35.336Z,98820.52
2023-02-19T04:06:10.833Z,98822.03
2023-02-19T04:08:45.421Z,98824.27
2023-02-19T04:11:18.063Z,98826.26
2023-02-19T04:13:52.521Z,98822.55
2023-02-19T04:16:27.605Z,98817.85
2023-02-19T04:19:03.510Z,98820.50
2023-02-19T04:21:37.588Z,98811.95
2023-02-19T04:24:13.844Z,98808.59
2023-02-19T04:26:46.362Z,98797.39
2023-02-19T04:29:17.046Z,98795.13
2023-02-19T04:31:47.841Z,98788.64
2023-02-19T04:34:18.570Z,98790.69
2023-02-19T04:36:49.210Z,98789.27
2023-02-19T04:39:20.124Z,98786.35
2023-02-19T04:41:50.990Z,98785.73
2023-02-19T04:44:21.911Z,98778.91
2023-02-19T04:46:52.589Z,98774.19
2023-02-19T04:49:23.523Z,98776.84
2023-02-19T04:51:54.228Z,98776.33
2023-02-19T04:54:25.178Z,98774.92
2023-02-19T04:56:56.234Z,98767.02
2023-02-19T04:59:26.983Z,98762.86
2023-02-19T05:01:58.106Z,98757.74
2023-02-19T05:04:28.868Z,98754.81
2023-02-19T05:06:59.597Z,98753.27
2023-02-19T05:09:30.247Z,98746.62
2023-02-19T05:12:00.854Z,98750.52
2023-02-19T05:14:31.526Z,98737.70
2023-02-19T05:17:02.272Z,98739.30
2023-02-19T05:19:33.134Z,98739.37
2023-02-19T05:22:03.836Z,98735.05
2023-02-19T05:24:34.553Z,98732.86
2023-02-19T05:27:05.396Z,98730.60
2023-02-19T05:29:36.135Z,98723.18
2023-02-19T05:32:06.892Z,98720.41
2023-02-19T05:34:37.606Z,98716.27
2023-02-19T05:37:08.346Z,98718.62
2023-02-19T05:39:40.166Z,98716.03
2023-02-19T05:42:10.822Z,98717.62
2023-02-19T05:44:41.483Z,98714.12
2023-02-19T05:47:12.621Z,98710.10
2023-02-19T05:49:43.349Z,98707.75
2023-02-19T05:52:14.102Z,98704.45
2023-02-19T05:54:44.848Z,98695.61
2023-02-19T05:57:15.539Z,98690.76
2023-02-19T05:59:46.162Z,98692.91
2023-02-19T06:02:16.851Z,98694.77
2023-02-19T06:04:47.503Z,98699.99
2023-02-19T06:07:18.223Z,98696.02
2023-02-19T06:09:51.108Z,98695.70
2023-02-19T06:12:21.752Z,98690.62
2023-02-19T06:14:52.694Z,98699.08
2023-02-19T06:17:23.737Z,98702.21
2023-02-19T06:19:54.779Z,98696.13
2023-02-19T06:22:25.601Z,98687.15
2023-02-19T06:24:56.345Z,98683.56
2023-02-19T06:27:27.088Z,98689.45
2023-02-19T06:29:57.834Z,98694.44
2023-02-19T06:32:28.513Z,98694.45
2023-02-19T06:34:59.313Z,98696.85
2023-02-19T06:37:30.358Z,98697.77
2023-02-19T06:40:01.103Z,98695.59
2023-02-19T06:42:34.423Z,98690.09
2023-02-19T06:45:05.336Z,98685.30
2023-02-19T06:47:39.140Z,98688.48
2023-02-19T06:50:10.748Z,98687.78
2023-02-19T06:52:41.634Z,98694.45
2023-02-19T06:55:13.598Z,98693.05
2023-02-19T06:57:44.228Z,98690.86
2023-02-19T07:00:16.390Z,98696.37
2023-02-19T07:02:47.075Z,98690.64
2023-02-19T07:05:17.991Z,98689.12
2023-02-19T07:07:49.461Z,98693.52
2023-02-19T07:10:20.733Z,98686.11
2023-02-19T07:12:51.573Z,98685.70
2023-02-19T07:15:22.424Z,98690.51
2023-02-19T07:17:53.373Z,98685.61
2023-02-19T07:20:24.111Z,98682.02
2023-02-19T07:22:54.890Z,98683.61
2023-02-19T07:25:25.630Z,98685.22
2023-02-19T07:27:56.885Z,98690.39
2023-02-19T07:30:27.733Z,98684.46
2023-02-19T07:32:58.605Z,98685.15
2023-02-19T07:35:30.203Z,98686.63
2023-02-19T07:38:01.293Z,98675.11
2023-02-19T07:40:32.499Z,98680.92
2023-02-19T07:43:03.555Z,98681.28
2023-02-19T07:45:34.740Z,98679.59
2023-02-19T07:48:05.874Z,98679.89
2023-02-19T07:50:36.736Z,98687.96
2023-02-19T07:53:07.604Z,98690.14
2023-02-19T07:55:38.530Z,98684.99
2023-02-19T07:58:09.431Z,98686.52
2023-02-19T08:00:40.973Z,98693.92
2023-02-19T08:03:12.268Z,98688.09
2023-02-19T08:05:45.225Z,98694.94
2023-02-19T08:08:17.318Z,98698.17
2023-02-19T08:11:05.632Z,98699.19
2023-02-19T08:13:36.814Z,98701.14
2023-02-19T08:16:26.605Z,98709.55
2023-02-19T08:19:04.450Z,98704.77
2023-02-19T08:21:35.474Z,98713.64
2023-02-19T08:24:07.147Z,98722.77
2023-02-19T08:26:38.650Z,98739.67
2023-02-19T08:29:09.703Z,98746.33
2023-02-19T08:31:40.840Z,98742.20
2023-02-19T08:34:14.921Z,98751.02
2023-02-19T08:36:45.965Z,98774.55
2023-02-19T08:39:17.141Z,98792.96
2023-02-19T08:41:49.244Z,98804.91
2023-02-19T08:44:20.843Z,98814.61
2023-02-19T08:46:54.016Z,98814.16
2023-02-19T08:49:28.342Z,98818.66
2023-02-19T08:51:59.563Z,98816.77
2023-02-19T08:54:31.360Z,98819.66
2023-02-19T08:57:05.479Z,98816.88
2023-02-19T08:59:36.705Z,98821.88
2023-02-19T09:02:07.668Z,98823.46
2023-02-19T09:04:39.517Z,98827.52
2023-02-19T09:07:11.198Z,98828.55
2023-02-19T09:09:42.432Z,98823.82
2023-02-19T09:12:14.742Z,98827.59
2023-02-19T09:14:46.692Z,98826.20
2023-02-19T09:17:17.822Z,98829.24
2023-02-19T09:19:50.856Z,98827.59
2023-02-19T09:22:22.693Z,98828.72
2023-02-19T09:24:53.930Z,98830.96
2023-02-19T09:27:24.867Z,98839.60
2023-02-19T09:29:56.012Z,98847.71
2023-02-19T09:32:27.602Z,98859.51
2023-02-19T09:34:59.352Z,98852.77
2023-02-19T09:37:32.025Z,98854.24
2023-02-19T09:40:03.917Z,98858.38
2023-02-19T09:42:35.743Z,98866.38
2023-02-19T09:45:09.203Z,98870.66
2023-02-19T09:47:40.542Z,98883.54
2023-02-19T09:50:17.914Z,98872.02
2023-02-19T09:52:53.446Z,98872.58
2023-02-19T09:55:32.817Z,98880.45
2023-02-19T09:58:10.036Z,98891.12
2023-02-19T10:00:42.709Z,98892.63
2023-02-19T10:03:18.600Z,98896.05
2023-02-19T10:05:49.932Z,98906.98
2023-02-19T10:08:22.443Z,98907.60
2023-02-19T10:10:54.466Z,98905.98
2023-02-19T10:13:31.407Z,98917.45
2023-02-19T10:16:06.520Z,98917.09
2023-02-19T10:18:42.564Z,98914.78
2023-02-19T10:21:20.666Z,98923.60
2023-02-19T10:23:55.161Z,98932.84
2023-02-19T10:26:28.285Z,98940.21
2023-02-19T10:28:59.516Z,98933.05
2023-02-19T10:31:32.389Z,98924.98
2023-02-19T10:34:08.771Z,98933.83
2023-02-19T10:36:45.314Z,98932.73
2023-02-19T10:39:37.109Z,98935.40
2023-02-19T10:42:15.287Z,98931.66
2023-02-19T10:44:49.211Z,98938.25
2023-02-19T10:47:23.457Z,98942.65
2023-02-19T10:49:59.338Z,98948.20
2023-02-19T10:52:34.517Z,98950.33
2023-02-19T10:55:26.720Z,98946.54
2023-02-19T10:57:58.439Z,98944.79
2023-02-19T11:00:31.481Z,98949.63
2023-02-19T11:03:22.885Z,98958.03
2023-02-19T11:06:02.988Z,98958.67
2023-02-19T11:08:47.300Z,98955.83
2023-02-19T11:11:36.663Z,98967.09
2023-02-19T11:14:15.866Z,98962.14
2023-02-19T11:16:52.126Z,98968.73
2023-02-19T11:19:41.152Z,98979.26
2023-02-19T11:22:33.412Z,98986.60
2023-02-19T11:25:25.673Z,98994.77
2023-02-19T11:28:08.274Z,99003.52
2023-02-19T11:30:42.623Z,99002.73
2023-02-19T11:33:28.587Z,98995.44
2023-02-19T11:39:20.759Z,98990.96
2023-02-19T11:42:12.654Z,98988.95
2023-02-19T11:44:53.397Z,98989.77
2023-02-19T11:47:56.780Z,98989.00
2023-02-19T11:50:36.574Z,98983.84
2023-02-19T11:53:21.834Z,98993.34
2023-02-19T11:56:05.040Z,99000.05
2023-02-19T11:58:57.976Z,99009.41
2023-02-19T12:01:49.790Z,99012.48
2023-02-19T12:04:49.151Z,99013.19
2023-02-19T12:07:31.245Z,99014.45
2023-02-19T12:10:15.170Z,99020.09
2023-02-19T12:12:57.556Z,99028.47
2023-02-19T12:15:47.946Z,99039.47
2023-02-19T12:18:48.920Z,99047.54
2023-02-19T12:21:37.422Z,99051.47
2023-02-19T12:24:26.836Z,99054.07
2023-02-19T12:27:12.225Z,99061.80
2023-02-19T12:30:14.800Z,99067.30
2023-02-19T12:32:59.717Z,99072.05
2023-02-19T12:35:48.530Z,99077.44
2023-02-19T12:38:28.732Z,99084.39
2023-02-19T12:41:13.310Z,99090.50
2023-02-19T12:43:52.629Z,99096.66
2023-02-19T12:46:28.372Z,99099.42
2023-02-19T12:49:02.939Z,99107.11
2023-02-19T12:51:41.971Z,99114.37
2023-02-19T12:54:20.199Z,99115.15
2023-02-19T12:56:56.707Z,99123.50
2023-02-19T12:59:34.419Z,99131.23
2023-02-19T13:02:16.323Z,99139.29
2023-02-19T13:04:52.960Z,99143.99
2023-02-19T13:07:29.512Z,99138.40
2023-02-19T13:10:07.843Z,99141.99
2023-02-19T13:12:41.893Z,99149.05
2023-02-19T13:15:19.897Z,99157.55
2023-02-19T13:17:55.615Z,99159.17
2023-02-19T13:20:32.749Z,99160.85
2023-02-19T13:23:27.136Z,99148.28
2023-02-19T13:26:14.358Z,99160.12
2023-02-19T13:29:00.573Z,99162.10
2023-02-19T13:31:59.313Z,99164.33
2023-02-19T13:34:47.890Z,99169.55
2023-02-19T13:37:20.646Z,99169.20
2023-02-19T13:39:53.897Z,99176.95
2023-02-19T13:42:32.598Z,99184.17
2023-02-19T13:45:06.443Z,99190.17
2023-02-19T13:48:03.268Z,99191.88
2023-02-19T13:50:35.753Z,99192.20
2023-02-19T13:53:44.933Z,99198.45
2023-02-19T13:56:39.181Z,99206.77
2023-02-19T13:59:36.100Z,99214.42
2023-02-19T14:02:15.984Z,99220.77
2023-02-19T14:05:00.258Z,99233.19
2023-02-19T14:07:54.680Z,99239.91
2023-02-19T14:11:02.710Z,99249.44
2023-02-19T14:14:06.529Z,99254.19
2023-02-19T14:16:55.999Z,99264.46
2023-02-19T14:19:53.719Z,99267.23
2023-02-19T14:23:10.872Z,99274.14
2023-02-19T14:26:05.262Z,99282.66
2023-02-19T14:28:42.123Z,99289.23
2023-02-19T14:31:23.761Z,99287.56
2023-02-19T14:33:56.676Z,99289.06
2023-02-19T14:36:50.295Z,99289.64
2023-02-19T14:39:25.585Z,99296.11
2023-02-19T14:41:58.773Z,99297.02
2023-02-19T14:44:32.860Z,99307.44
2023-02-19T14:47:09.146Z,99314.60
2023-02-19T14:49:44.554Z,99332.65
2023-02-19T14:52:21.695Z,99337.91
2023-02-19T14:54:55.595Z,99345.52
2023-02-19T14:57:30.113Z,99356.53
2023-02-19T15:00:02.922Z,99366.75
2023-02-19T15:02:43.058Z,99372.41
2023-02-19T15:05:20.602Z,99380.84
2023-02-19T15:07:52.373Z,99384.52
2023-02-19T15:10:23.834Z,99386.82
2023-02-19T15:12:58.841Z,99390.65
2023-02-19T15:15:32.871Z,99393.70
2023-02-19T15:18:05.481Z,99396.59
2023-02-19T15:20:39.789Z,99410.52
2023-02-19T15:23:18.152Z,99417.42
2023-02-19T15:25:50.204Z,99418.16
2023-02-19T15:28:29.997Z,99420.08
2023-02-19T15:31:14.842Z,99422.20
2023-02-19T15:33:53.467Z,99425.77
2023-02-19T15:36:31.425Z,99420.34
2023-02-19T15:39:04.031Z,99424.83
2023-02-19T15:41:38.121Z,99427.88
2023-02-19T15:44:23.581Z,99428.98
2023-02-19T15:46:55.109Z,99433.11
2023-02-19T15:49:33.377Z,99442.66
2023-02-19T15:52:10.233Z,99442.70
2023-02-19T15:54:51.978Z,99449.41
2023-02-19T15:57:29.248Z,99453.73
2023-02-19T16:00:04.885Z,99455.37
2023-02-19T16:02:37.325Z,99457.56
2023-02-19T16:05:17.989Z,99456.51
2023-02-19T16:07:48.909Z,99461.88
2023-02-19T16:10:25.024Z,99466.14
2023-02-19T16:13:01.080Z,99471.09
2023-02-19T16:15:34.418Z,99481.42
2023-02-19T16:18:06.093Z,99484.97
2023-02-19T16:20:38.160Z,99489.11
2023-02-19T16:23:15.256Z,99489.28
2023-02-19T16:25:48.170Z,99500.29
2023-02-19T16:28:23.260Z,99500.80
2023-02-19T16:31:00.985Z,99506.48
2023-02-19T16:33:38.920Z,99509.38
2023-02-19T16:36:35.792Z,99520.92
2023-02-19T16:39:21.276Z,99534.37
2023-02-19T16:42:24.031Z,99539.14
2023-02-19T16:44:54.914Z,99545.61
2023-02-19T16:47:47.611Z,99550.69
2023-02-19T16:50:21.626Z,99544.30
2023-02-19T16:52:58.242Z,99547.96
2023-02-19T16:55:30.058Z,99557.84
2023-02-19T16:58:01.279Z,99559.73
2023-02-19T17:00:33.316Z,99564.15
2023-02-19T17:03:09.175Z,99566.52
2023-02-19T17:05:41.512Z,99569.59
2023-02-19T17:08:35.106Z,99572.73
2023-02-19T17:11:08.841Z,99590.73
2023-02-19T17:13:38.297Z,99591.07
2023-02-19T17:16:13.623Z,99597.29
2023-02-19T17:18:44.678Z,99601.33
2023-02-19T17:21:19.868Z,99614.69
2023-02-19T17:23:51.232Z,99620.43
2023-02-19T17:26:25.293Z,99622.80
2023-02-19T17:28:59.696Z,99626.30
2023-02-19T17:31:31.107Z,99627.58
2023-02-19T17:34:02.367Z,99626.78
2023-02-19T17:36:35.337Z,99625.21
2023-02-19T17:39:08.773Z,99617.06
2023-02-19T17:41:40.164Z,99610.79
2023-02-19T17:44:11.535Z,99628.44
2023-02-19T17:46:42.805Z,99626.61
2023-02-19T17:49:15.716Z,99627.63
2023-02-19T17:51:46.769Z,99634.02
2023-02-19T17:54:17.924Z,99634.02
2023-02-19T17:56:49.359Z,99641.73
2023-02-19T17:59:20.473Z,99647.09
2023-02-19T18:01:51.548Z,99653.23
2023-02-19T18:04:22.477Z,99656.67
2023-02-19T18:06:54.248Z,99655.71
2023-02-19T18:09:25.321Z,99659.02
2023-02-19T18:11:56.290Z,99662.28
2023-02-19T18:14:27.512Z,99665.70
2023-02-19T18:16:58.633Z,99667.40
2023-02-19T18:19:30.234Z,99670.49
2023-02-19T18:22:01.199Z,99672.21
2023-02-19T18:24:32.121Z,99674.77
2023-02-19T18:27:03.497Z,99679.98
2023-02-19T18:29:35.182Z,99686.03
2023-02-19T18:32:06.522Z,99685.89
2023-02-19T18:34:40.115Z,99685.41
2023-02-19T18:37:11.130Z,99691.13
2023-02-19T18:39:44.039Z,99696.01
2023-02-19T18:42:15.414Z,99702.38
2023-02-19T18:44:49.310Z,99702.11
2023-02-19T18:47:22.481Z,99702.80
2023-02-19T18:49:56.022Z,99711.15
2023-02-19T18:52:30.081Z,99721.28
2023-02-19T18:55:02.579Z,99727.95
2023-02-19T18:57:36.688Z,99735.77
2023-02-19T19:00:12.069Z,99738.45
2023-02-19T19:02:49.670Z,99740.63
2023-02-19T19:05:23.848Z,99742.34
2023-02-19T19:08:00.060Z,99748.60
2023-02-19T19:10:32.356Z,99750.97
2023-02-19T19:13:03.708Z,99752.91
2023-02-19T19:15:35.394Z,99760.21
2023-02-19T19:18:07.101Z,99758.27
2023-02-19T19:20:38.191Z,99752.77
2023-02-19T19:23:09.444Z,99758.79
2023-02-19T19:25:41.046Z,99761.87
2023-02-19T19:28:12.560Z,99760.92
2023-02-19T19:30:43.796Z,99763.50
2023-02-19T19:33:17.729Z,99762.48
2023-02-19T19:35:48.862Z,99759.55
2023-02-19T19:38:25.332Z,99765.83
2023-02-19T19:40:57.692Z,99766.62
2023-02-19T19:43:31.894Z,99764.09
2023-02-19T19:46:04.698Z,99754.27
2023-02-19T19:48:36.055Z,99760.21
2023-02-19T19:51:08.200Z,99762.94
2023-02-19T19:53:39.377Z,99761.47
2023-02-19T19:56:11.319Z,99762.95
2023-02-19T19:58:42.584Z,99772.94
2023-02-19T20:01:15.181Z,99775.83
2023-02-19T20:03:46.445Z,99777.50
2023-02-19T20:06:24.221Z,99771.55
2023-02-19T20:08:55.913Z,99780.54
2023-02-19T20:11:27.089Z,99781.32
2023-02-19T20:13:58.334Z,99779.63
2023-02-19T20:16:30.464Z,99779.33
2023-02-19T20:19:01.918Z,99783.08
2023-02-19T20:21:33.948Z,99779.40
2023-02-19T20:24:05.584Z,99776.95
2023-02-19T20:26:37.140Z,99776.22
2023-02-19T20:29:08.218Z,99777.33
2023-02-19T20:31:39.294Z,99779.48
2023-02-19T20:34:10.434Z,99782.27
2023-02-19T20:36:47.040Z,99777.81
2023-02-19T20:39:18.923Z,99782.66
2023-02-19T20:41:53.329Z,99789.57
2023-02-19T20:44:24.878Z,99794.50
2023-02-19T20:46:57.461Z,99800.97
2023-02-19T20:49:30.661Z,99800.01
2023-02-19T20:52:03.461Z,99803.66
2023-02-19T20:54:36.123Z,99803.10
2023-02-19T20:57:08.114Z,99800.70
2023-02-19T20:59:40.876Z,99798.66
2023-02-19T21:02:18.145Z,99798.38
2023-02-19T21:04:49.322Z,99803.98
2023-02-19T21:07:20.513Z,99809.63
2023-02-19T21:09:52.266Z,99808.74
2023-02-19T21:12:26.484Z,99819.48
2023-02-19T21:14:57.910Z,99827.55
2023-02-19T21:17:29.575Z,99828.06
2023-02-19T21:20:00.534Z,99817.65
2023-02-19T21:22:31.688Z,99839.90
2023-02-19T21:25:02.658Z,99839.45
2023-02-19T21:27:33.690Z,99837.24
2023-02-19T21:30:05.074Z,99834.90
2023-02-19T21:32:36.017Z,99832.48
2023-02-19T21:35:07.801Z,99834.66
2023-02-19T21:37:42.355Z,99836.24
2023-02-19T21:40:15.431Z,99838.06
2023-02-19T21:42:46.388Z,99843.30
2023-02-19T21:45:17.529Z,99841.66
2023-02-19T21:47:52.125Z,99846.05
2023-02-19T21:50:23.821Z,99853.55
2023-02-19T21:52:55.299Z,99854.89
2023-02-19T21:55:26.441Z,99851.06
2023-02-19T21:57:57.819Z,99851.45
2023-02-19T22:00:28.639Z,99849.02
2023-02-19T22:02:59.602Z,99852.79
2023-02-19T22:05:30.498Z,99855.89
2023-02-19T22:08:01.780Z,99859.96
2023-02-19T22:10:32.707Z,99862.72
2023-02-19T22:13:03.550Z,99863.33
2023-02-19T22:15:34.783Z,99860.46
2023-02-19T22:18:05.952Z,99859.55
2023-02-19T22:20:38.530Z,99865.55
2023-02-19T22:23:10.166Z,99870.33
2023-02-19T22:25:40.883Z,99871.90
2023-02-19T22:28:11.659Z,99871.49
2023-02-19T22:30:43.154Z,99877.33
2023-02-19T22:33:14.058Z,99878.11
2023-02-19T22:35:45.302Z,99885.75
2023-02-19T22:38:16.054Z,99891.01
2023-02-19T22:40:46.883Z,99893.40
2023-02-19T22:43:21.230Z,99896.19
2023-02-19T22:45:52.014Z,99899.86
2023-02-19T22:48:30.042Z,99909.02
2023-02-19T22:51:02.543Z,99910.24
2023-02-19T22:53:33.446Z,99910.20
2023-02-19T22:56:04.290Z,99907.23
2023-02-19T22:58:35.192Z,99912.70
2023-02-19T23:01:06.509Z,99909.55
2023-02-19T23:03:45.546Z,99912.26
2023-02-19T23:06:26.115Z,99910.86
2023-02-19T23:08:59.063Z,99912.38
2023-02-19T23:11:33.812Z,99914.66
2023-02-19T23:14:05.275Z,99919.00
2023-02-19T23:16:37.564Z,99924.98
2023-02-19T23:19:11.950Z,99924.73
2023-02-19T23:21:45.996Z,99927.85
2023-02-19T23:24:17.746Z,99924.23
2023-02-19T23:26:50.811Z,99924.81
2023-02-19T23:29:25.302Z,99922.71
2023-02-19T23:31:57.247Z,99918.27
2023-02-19T23:34:30.221Z,99912.91
2023-02-19T23:37:02.458Z,99913.59
2023-02-19T23:39:33.410Z,99908.39
2023-02-19T23:42:04.272Z,99902.85
2023-02-19T23:44:35.284Z,99902.67
2023-02-19T23:47:06.331Z,99899.21
2023-02-19T23:49:38.055Z,99890.71
2023-02-19T23:52:10.544Z,99884.55
2023-02-19T23:54:42.553Z,99875.14
2023-02-19T23:57:15.215Z,99873.30
2023-02-19T23:59:50.152Z,99865.98
